Flight Track Log - Related Links

Times and Time Zones

All times are in EDT time to prevent confusion due to time zone crossing. See the LOF3416 flight status page for this flight to view local times or setup timezone preferences in your user account.

Time Position Orientation Groundspeed Altitude Reporting Facility
EDT Latitude Longitude Course Direction KTS MPH feet Rate Location/Type
Tue 08:02:14 PM 37.3942 -93.2708 38° Northeast 248 285 6,900  Level Kansas City Center
Tue 08:03:14 PM 37.4586 -93.2133 35° Northeast 274 315 9,200 2,098 Climbing Kansas City Center
Tue 08:04:17 PM 37.5250 -93.1522 36° Northeast 288 331 11,200 1,632 Climbing Kansas City Center
Tue 08:05:19 PM 37.5989 -93.0842 36° Northeast 316 364 12,600 1,574 Climbing Kansas City Center
Tue 08:06:00 PM 37.7343 -92.9325 38° Northeast  Level FlightAware Approximate
Tue 08:06:19 PM 37.6772 -93.0122 36° Northeast 335 386 14,400  Level Kansas City Center
Tue 08:07:00 PM 37.8150 -92.8518 38° Northeast  Level FlightAware Approximate
Tue 08:07:21 PM 37.7556 -92.9394 36° Northeast 345 397 16,000  Level Kansas City Center
Tue 08:08:24 PM 37.8519 -92.8506 36° Northeast 354 407 17,800 1,548 Climbing Kansas City Center
Tue 08:09:25 PM 37.9333 -92.7758 36° Northeast 357 411 19,200 1,512 Climbing Kansas City Center
Tue 08:10:27 PM 38.0031 -92.7122 36° Northeast 356 410 20,900 1,721 Climbing Kansas City Center
Tue 08:11:27 PM 38.0819 -92.6378 37° Northeast 355 409 22,700 1,884 Climbing Kansas City Center
Tue 08:12:28 PM 38.1783 -92.5483 36° Northeast 356 410 24,700 1,887 Climbing Kansas City Center
Tue 08:13:31 PM 38.2575 -92.4753 36° Northeast 358 412 26,600 1,104 Climbing Kansas City Center
Tue 08:14:33 PM 38.3394 -92.3983 36° Northeast 360 414 27,000 195 Climbing Kansas City Center
Tue 08:15:34 PM 38.4311 -92.3108 37° Northeast 385 443 27,000  Level Kansas City Center
Tue 08:16:34 PM 38.5308 -92.2175 36° Northeast 417 480 27,000  Level Kansas City Center
Tue 08:17:38 PM 38.6336 -92.1203 36° Northeast 439 505 27,000  Level Kansas City Center
Tue 08:18:39 PM 38.7386 -92.0203 37° Northeast 455 524 27,000  Level Kansas City Center
Tue 08:19:40 PM 38.8656 -91.8983 37° Northeast 467 537 27,000  Level Kansas City Center
Tue 08:20:43 PM 38.9714 -91.7969 37° Northeast 471 542 27,000  Level Kansas City Center
Tue 08:21:44 PM 39.0761 -91.6958 37° Northeast 471 542 27,000  Level Kansas City Center
Tue 08:22:44 PM 39.1814 -91.5956 36° Northeast 472 543 27,000  Level Kansas City Center
Tue 08:23:46 PM 39.2869 -91.4942 37° Northeast 473 544 27,000  Level Kansas City Center
Tue 08:24:48 PM 39.3900 -91.3928 37° Northeast 469 540 27,000  Level Kansas City Center
Tue 08:25:51 PM 39.4947 -91.2914 37° Northeast 468 539 27,000  Level Kansas City Center
Tue 08:26:52 PM 39.5969 -91.1906 37° Northeast 465 535 27,000  Level Kansas City Center
Tue 08:27:52 PM 39.7011 -91.0881 37° Northeast 465 535 27,000  Level Kansas City Center
Tue 08:28:56 PM 39.8244 -90.9636 38° Northeast 469 540 27,000  Level Kansas City Center
Tue 08:29:56 PM 39.9283 -90.8617 37° Northeast 467 537 27,000  Level Kansas City Center
Tue 08:30:57 PM 40.0311 -90.7553 38° Northeast 470 541 27,000  Level Kansas City Center
Tue 08:32:02 PM 40.1300 -90.6556 38° Northeast 467 537 27,000  Level Chicago Center
Tue 08:33:02 PM 40.2375 -90.5464 38° Northeast 470 541 27,000  Level Kansas City Center
Tue 08:34:02 PM 40.3400 -90.4417 38° Northeast 467 537 27,000  Level Kansas City Center
Tue 08:35:02 PM 40.4422 -90.3367 38° Northeast 466 536 27,000  Level Kansas City Center
Tue 08:36:05 PM 40.5561 -90.2194 38° Northeast 465 535 27,000  Level Kansas City Center
Tue 08:37:06 PM 40.6569 -90.1153 38° Northeast 465 535 27,000 -277 Level Kansas City Center
Tue 08:38:15 PM 40.7775 -89.9942 37° Northeast 468 539 26,400 -687 Descending Chicago Center
Tue 08:39:17 PM 40.8769 -89.8881 39° Northeast 464 534 25,500 -919 Descending Chicago Center
Tue 08:40:19 PM 40.9717 -89.7806 41° Northeast 452 520 24,500 -726 Descending Chicago Center
Tue 08:41:21 PM 41.0775 -89.6764 37° Northeast 457 526 24,000 -581 Descending Chicago Center
Tue 08:42:23 PM 41.1678 -89.5667 42° Northeast 442 509 23,300 -1,500 Descending Chicago Center
Tue 08:43:25 PM 41.2381 -89.3981 61° Northeast 432 497 20,900 -2,371 Descending Chicago Center
Tue 08:44:27 PM 41.2942 -89.2581 62° Northeast 428 493 18,400 -2,177 Descending Chicago Center
Tue 08:45:29 PM 41.3436 -89.1303 63° Northeast 413 475 16,400 -2,177 Descending Chicago Center
Tue 08:46:31 PM 41.3958 -89.0017 62° Northeast 400 460 13,900 -2,226 Descending Chicago Center
Tue 08:47:33 PM 41.4561 -88.8500 62° Northeast 389 448 11,800 -1,403 Descending Chicago Center
Tue 08:48:35 PM 41.5058 -88.7253 62° Northeast 383 441 11,000 -384 Descending Chicago Center
Tue 08:49:38 PM 41.5522 -88.6036 63° Northeast 372 428 11,000  Level Chicago Center
Tue 08:50:40 PM 41.6011 -88.4850 61° Northeast 368 423 11,000 -145 Level Chicago Center
Tue 08:51:42 PM 41.6600 -88.3789 53° Northeast 353 406 10,700 -726 Descending Chicago Center
Tue 08:52:44 PM 41.7097 -88.2917 53° Northeast 298 343 9,500 -1,355 Descending Chicago Center
Tue 08:53:46 PM 41.7653 -88.1994 51° Northeast 266 306 7,900 -1,161 Descending Chicago Center
Tue 08:54:48 PM 41.8042 -88.1297 53° Northeast 239 275 7,100 -435 Descending Chicago Center
Tue 08:55:50 PM 41.8336 -88.0578 61° Northeast 224 258 7,000 -48 Descending Chicago Center
Tue 08:56:52 PM 41.8481 -87.9836 75° East 209 241 7,000  Level Chicago Center
Tue 08:57:54 PM 41.8619 -87.9097 76° East 205 236 7,000 -97 Level Chicago Center
Tue 08:58:56 PM 41.8794 -87.8239 75° East 201 231 6,800 -919 Descending Chicago Center
Tue 08:59:58 PM 41.8836 -87.7464 86° East 212 244 5,100 -1,500 Descending Chicago Center
Tue 09:01:00 PM 41.9175 -87.7014 45° Northeast 210 242 3,700 -1,210 Descending Chicago Center
Tue 09:02:02 PM 41.9533 -87.7475 316° Northwest 194 223 2,600 -864 Descending Chicago Center
Tue 09:03:05 PM 41.9767 -87.8031 299° West 179 206 1,900 -720 Descending Chicago Center
Tue 09:04:07 PM 41.9689 -87.8558 259° West 143 165 1,100 -774 Descending Chicago Center
Tue 09:06:00 PM 41.9667 -87.9000 292° West  Level FlightAware Approximate

Login

Don't have an account? Register now (free) for customized features, flight alerts, and more!